Tiempo atmosférico en la estación meteorológica de Barbate, Cádiz (4 m.)



Fecha
DESCASC
Temp. máxima en grados centígrados (hora)
DESCASC
Temp. mínima en grados centígrados (hora)
DESCASC
Temp. media en grados centígrados
DESCASC
Racha de viento máxima en m/sg (hora)
DESCASC
Velocidad máxima media en intervalos de 10 minutos(hora)
DESCASC
Precipitaciones diarias en mm
DESCASC
Precipitaciones de 00:00 a 06:00 en mm
DESCASC
Precipitaciones de 06:00 a 12:00 en mm
DESCASC
Precipitaciones de 12:00 a 18:00 en mm
DESCASC
Precipitaciones de 18:00 a 24:00 en mm
DESCASC
16-06-2019 22.8 (16:00) 13.5 (06:30) 18.1 7.5 (16:30) 6.94 (16:30) 0 0 0 0 0
15-06-2019 26.7 (14:20) 13.2 (07:20) 20 11.11 (16:00) 7.78 (16:50) 0 0 0 0 0
14-06-2019 20.6 (15:10) 17.1 (23:59) 18.9 12.22 (06:20) 10.28 (05:50) 0 0 0 0 0
13-06-2019 27.3 (18:10) 17.3 (00:00) 22.3 11.39 (16:40) 7.78 (16:20) 0 0 0 0 0
12-06-2019 26.7 (15:50) 17.4 (00:00) 22.1 20 (11:50) 12.5 (11:30) 0 0 0 0 0
11-06-2019 21.3 (19:50) 14.2 (00:00) 17.7 10.28 (15:40) 8.06 (15:30) 0 0 0 0 0
10-06-2019 20.7 (16:50) 16.7 (00:00) 18.7 11.67 (16:30) 9.44 (14:40) 0 0 0 0 0
09-06-2019 22.2 (13:50) 17.4 (00:00) 19.8 9.72 (19:10) 7.78 (19:20) 0 0 0 0 0
08-06-2019 23.2 (14:50) 12.8 (00:00) 18 7.22 (17:20) 6.11 (19:40) 0 0 0 0 0
07-06-2019 24.4 (13:40) 17.4 (00:00) 20.9 10.56 (15:20) 8.33 (15:30) 0 0 0 0 0
06-06-2019 21.9 (17:40) 13.5 (00:00) 17.7 9.72 (13:40) 8.33 (14:00) 0 0 0 0 0
05-06-2019 22.2 (12:30) 16.1 (00:00) 19.2 12.22 (15:40) 10 (17:10) 0 0 0 0 0
04-06-2019 22.4 (16:20) 14.3 (00:00) 18.3 10.56 (16:40) 9.17 (16:50) 0 0 0 0 0
03-06-2019 26.4 (15:00) 17.9 (00:00) 22.1 17.78 (02:50) 11.39 (02:50) 0 0 0 0 0
02-06-2019 29.1 (16:30) 20.1 (00:00) 24.6 20 (07:20) 11.67 (07:20) 0 0 0 0 0
01-06-2019 26.4 (17:40) 18.7 (00:00) 22.6 18.89 (15:00) 12.5 (16:20) 0 0 0 0 0
31-05-2019 25.4 (15:20) 18.7 (00:00) 22.1 26.67 (12:10) 14.72 (13:20) 0 0 0 0 0
30-05-2019 25.4 (16:30) 19.1 (00:00) 22.3 25 (09:40) 14.44 (13:30) 0 0 0 0 0
29-05-2019 27 (17:10) 15.9 (00:00) 21.4 22.78 (10:50) 13.33 (19:50) 0 0 0 0 0
28-05-2019 24.8 (18:10) 17.5 (00:00) 21.1 6.94 (18:40) 6.11 (10:30) 0 0 0 0 0
27-05-2019 29.1 (18:10) 14.7 (00:00) 21.9 7.78 (15:40) 5.83 (16:20) 0 0 0 0 0
26-05-2019 29 (15:00) 18 (00:00) 23.5 11.11 (08:10) 8.61 (18:20) 0 0 0 0 0
25-05-2019 24.6 (17:50) 17.6 (00:00) 21.1 10 (16:40) 7.78 (19:10) 0 0 0 0 0
24-05-2019 21.2 (12:00) 15 (00:00) 18.1 10.28 (15:00) 8.61 (12:50) 0 0 0 0 0
23-05-2019 25.1 (11:00) 17.1 (00:00) 21.1 10 (03:40) 8.33 (03:40) 0 0 0 0 0
22-05-2019 28.5 (17:40) 13.4 (00:00) 20.9 10.83 (17:30) 7.22 (18:10) 0 0 0 0 0

Gráficas

Temp. máximas Temp. mínimas Temp. medias Precipitaciones Rachas de viento máximas Velocidades máximas media en intervalos de 10 minutos

Datos horarios

Fecha y hora oficial Temperatura (ºC) Velocidad del viento (km/h) Dirección del viento Racha (km/h) Dirección de racha Precipitación (mm) Presión (hPa) Tendencia (hPa) Humedad (%)
2019-06-20 23:00:00 19.4 10 Oeste 17 Oeste 0 -- -- 85
2019-06-20 22:00:00 19.9 9 Oeste 24 Oeste 0 -- -- 84
2019-06-20 21:00:00 21.6 12 Oeste 23 Noroeste 0 -- -- 76
2019-06-20 20:00:00 21.8 18 Oeste 33 Oeste 0 -- -- 69
2019-06-20 19:00:00 21.3 25 Oeste 33 Oeste 0 -- -- 82
2019-06-20 18:00:00 21.7 26 Oeste 31 Oeste 0 -- -- 83
2019-06-20 17:00:00 22 26 Oeste 31 Oeste 0 -- -- 81
2019-06-20 16:00:00 22.4 24 Oeste 30 Oeste 0 -- -- 81
2019-06-20 15:00:00 22.2 24 Oeste 29 Oeste 0 -- -- 79
2019-06-20 14:00:00 22.1 23 Oeste 30 Oeste 0 -- -- 82
2019-06-20 13:00:00 21.7 26 Oeste 30 Sudoeste 0 -- -- 85
2019-06-20 12:00:00 21.1 24 Oeste 30 Oeste 0 -- -- 86
2019-06-20 11:00:00 20.7 22 Oeste 26 Oeste 0 -- -- 84
2019-06-20 10:00:00 20.8 14 Oeste 19 Oeste 0 -- -- 82
2019-06-20 09:00:00 19.6 12 Oeste 19 Noroeste 0 -- -- 86
2019-06-20 08:00:00 18 8 Oeste 12 Oeste 0 -- -- 96
2019-06-20 07:00:00 17.7 8 Oeste 14 Oeste 0 -- -- 96
2019-06-20 06:00:00 18 8 Oeste 10 Oeste 0 -- -- 97
2019-06-20 05:00:00 18.7 6 Oeste 13 Oeste 0 -- -- 97
2019-06-20 04:00:00 19 8 Oeste 14 Noroeste 0 -- -- 96
2019-06-20 03:00:00 19.2 8 Oeste 15 Oeste 0 -- -- 95
2019-06-20 02:00:00 19.6 11 Noroeste 18 Noroeste 0 -- -- 93
2019-06-20 01:00:00 19.6 8 Oeste 17 Oeste 0 -- -- 92
2019-06-20 00:00:00 19.7 8 Noroeste 20 Noroeste 0 -- -- 92
2019-06-19 23:00:00 20.1 6 Noroeste 17 Norte 0 -- -- 88
2019-06-19 22:00:00 20.6 5 Noroeste 14 Norte 0 -- -- 86
2019-06-19 21:00:00 22.5 7 Noroeste 35 Noroeste 0 -- -- 77
2019-06-19 20:00:00 23.4 22 Oeste 37 Oeste 0 -- -- 71
2019-06-19 19:00:00 24.1 23 Noroeste 37 Noroeste 0 -- -- 65
2019-06-19 18:00:00 21.9 28 Oeste 37 Sudoeste 0 -- -- 84
2019-06-19 17:00:00 21.8 29 Oeste 40 Oeste 0 -- -- 85
2019-06-19 16:00:00 22.2 30 Oeste 38 Oeste 0 -- -- 82
2019-06-19 15:00:00 21.8 32 Oeste -- -- -- -- -- 82
2019-06-19 14:00:00 -- -- -- -- -- -- -- -- --
2019-06-19 13:00:00 21.8 28 Oeste 33 Oeste 0 -- -- 87
2019-06-19 12:00:00 21.1 26 Oeste 32 Oeste 0 -- -- 89
2019-06-19 11:00:00 20.7 20 Oeste 25 Oeste 0 -- -- 89
2019-06-19 10:00:00 21.5 9 Oeste 16 Oeste 0 -- -- 85
2019-06-19 09:00:00 19.6 3 Oeste 7 Noroeste 0 -- -- 94
2019-06-19 08:00:00 18.6 0 Calma 6 Este 0 -- -- 97
2019-06-19 07:00:00 18.2 0 Calma 5 Norte 0 -- -- 97
2019-06-19 06:00:00 18.4 2 Norte 13 Noroeste 0 -- -- 97
2019-06-19 05:00:00 18.4 10 Norte 13 Noroeste 0 -- -- 96
2019-06-19 04:00:00 19 8 Oeste 10 Oeste 0 -- -- 95
2019-06-19 03:00:00 19.1 5 Oeste 10 Sudoeste 0 -- -- 95
2019-06-19 02:00:00 18.7 3 Oeste 8 Oeste 0 -- -- 95
2019-06-19 01:00:00 18.7 5 Oeste 13 Oeste 0 -- -- 94
2019-06-19 00:00:00 19 10 Oeste 13 Oeste 0 -- -- 92
2019-06-18 23:00:00 19.3 9 Oeste 17 Noroeste 0 -- -- 89
2019-06-18 22:00:00 20 11 Oeste 23 Oeste 0 -- -- 85
2019-06-18 21:00:00 22 14 Noroeste 27 Noroeste 0 -- -- 75
2019-06-18 20:00:00 22.2 15 Oeste 28 Sudoeste 0 -- -- 74
2019-06-18 19:00:00 21.8 22 Oeste 33 Oeste 0 -- -- 79
2019-06-18 18:00:00 21.7 23 Oeste 31 Oeste 0 -- -- 75
2019-06-18 17:00:00 21.7 26 Oeste 31 Oeste 0 -- -- 74
2019-06-18 16:00:00 22 24 Sudoeste 28 Sudoeste 0 -- -- 71
2019-06-18 15:00:00 21.8 23 Sudoeste 27 Sudoeste 0 -- -- 70
2019-06-18 14:00:00 22.2 19 Sudoeste 24 Sudoeste 0 -- -- 71
2019-06-18 13:00:00 22.2 16 Sudoeste 21 Sudoeste 0 -- -- 70
2019-06-18 12:00:00 21.5 15 Oeste 19 Sudoeste 0 -- -- 70
2019-06-18 11:00:00 20.2 8 Oeste 18 Oeste 0 -- -- 74
2019-06-18 10:00:00 18.7 9 Oeste 15 Sudoeste 0 -- -- 80
2019-06-18 09:00:00 15.9 5 Nordeste 9 Nordeste 0 -- -- 95
2019-06-18 08:00:00 14.7 5 Norte 9 Norte 0 -- -- 97
2019-06-18 07:00:00 14.5 6 Norte 8 Norte 0 -- -- 95
2019-06-18 06:00:00 15.5 5 Nordeste 6 Nordeste 0 -- -- 95
2019-06-18 05:00:00 15.9 2 Norte 4 Nordeste 0 -- -- 95
2019-06-18 04:00:00 16.4 0 Calma 5 Este 0 -- -- 92
2019-06-18 03:00:00 16.8 4 Nordeste 9 Noroeste 0 -- -- 90
2019-06-18 02:00:00 17.5 4 Norte 11 Noroeste 0 -- -- 88
2019-06-18 01:00:00 17.9 6 Norte 13 Norte 0 -- -- 82
2019-06-18 00:00:00 18 8 Norte 13 Norte 0 -- -- 79
2019-06-17 23:00:00 19 8 Noroeste 10 Noroeste 0 -- -- 76
2019-06-17 22:00:00 20.7 6 Noroeste 13 Norte 0 -- -- 71
2019-06-17 21:00:00 23.2 7 Noroeste 19 Oeste 0 -- -- 62
2019-06-17 20:00:00 23.3 14 Oeste 21 Oeste 0 -- -- 72
2019-06-17 19:00:00 22.8 15 Sudoeste 27 Oeste 0 -- -- 71
2019-06-17 18:00:00 22.3 20 Oeste 27 Oeste 0 -- -- 79
2019-06-17 17:00:00 21.9 20 Oeste 28 Sudoeste 0 -- -- 80
2019-06-17 16:00:00 21.7 23 Oeste 27 Oeste 0 -- -- 81
2019-06-17 15:00:00 21.9 20 Sudoeste 25 Sudoeste 0 -- -- 81
2019-06-17 14:00:00 21.9 19 Sudoeste 23 Sudoeste 0 -- -- 81
2019-06-17 13:00:00 21.6 19 Sudoeste 22 Sudoeste 0 -- -- 81
2019-06-17 12:00:00 21.5 16 Sudoeste 22 Sur 0 -- -- 81
2019-06-17 11:00:00 20.6 18 Sur 20 Sur 0 -- -- 85
2019-06-17 10:00:00 19.1 9 Sudoeste 12 Sudoeste 0 -- -- 84
2019-06-17 09:00:00 16 5 Nordeste 12 Norte 0 -- -- 88
2019-06-17 08:00:00 13.2 8 Norte 13 Norte 0 -- -- 98
2019-06-17 07:00:00 13 8 Norte 10 Nordeste 0 -- -- 96
2019-06-17 06:00:00 13.5 6 Norte 9 Norte 0 -- -- 95
2019-06-17 05:00:00 14.2 6 Norte 9 Norte 0 -- -- 94
2019-06-17 04:00:00 14.3 4 Nordeste 8 Nordeste 0 -- -- 95
2019-06-17 03:00:00 14.6 5 Nordeste 8 Nordeste 0 -- -- 92
2019-06-17 02:00:00 15.6 6 Norte 9 Norte 0 -- -- 92
2019-06-17 01:00:00 16.3 5 Norte 9 Norte 0 -- -- 90
2019-06-17 00:00:00 17.3 4 Norte 8 Nordeste 0 -- -- 87
2019-06-16 23:00:00 18.4 7 Este 10 Nordeste 0 -- -- 83
2019-06-16 22:00:00 19.9 6 Oeste 14 Sudoeste 0 -- -- 84
2019-06-16 21:00:00 21.4 15 Oeste 23 Oeste 0 -- -- 77
2019-06-16 20:00:00 22 13 Oeste 25 Oeste 0 -- -- 74
2019-06-16 19:00:00 21.9 20 Oeste 26 Oeste 0 -- -- 80
2019-06-16 18:00:00 22 19 Sudoeste 27 Oeste 0 -- -- 79
2019-06-16 17:00:00 21.9 22 Oeste 27 Sudoeste 0 -- -- 80
2019-06-16 16:00:00 22.8 20 Sudoeste 26 Sudoeste 0 -- -- 80
2019-06-16 15:00:00 21.6 22 Sudoeste 25 Sudoeste 0 -- -- 80
2019-06-16 14:00:00 22.3 19 Sudoeste 21 Sudoeste 0 -- -- 75
2019-06-16 13:00:00 21.6 17 Sudoeste 20 Sudoeste 0 -- -- 79
2019-06-16 12:00:00 20.9 15 Sur 20 Sur 0 -- -- 81
2019-06-16 11:00:00 20.5 11 Sur 13 Sur 0 -- -- 82
2019-06-16 10:00:00 19.5 10 Sur 12 Sur 0 -- -- 86
2019-06-16 09:00:00 16.6 3 Norte 10 Norte 0 -- -- 88
2019-06-16 08:00:00 13.8 7 Norte 12 Nordeste 0 -- -- 92
2019-06-16 07:00:00 13.6 6 Norte 11 Norte 0 -- -- 91
2019-06-16 06:00:00 14 7 Norte 9 Norte 0 -- -- 90
2019-06-16 05:00:00 14 6 Norte 8 Nordeste 0 -- -- 89
2019-06-16 04:00:00 14.8 3 Este 4 Este 0 -- -- 89
2019-06-16 03:00:00 14.9 0 Calma 7 Nordeste 0 -- -- 89
2019-06-16 02:00:00 15.1 4 Norte 8 Norte 0 -- -- 84
2019-06-16 01:00:00 17.2 3 Nordeste 5 Nordeste 0 -- -- 81
2019-06-16 00:00:00 17.5 4 Nordeste 12 Norte 0 -- -- 78
2019-06-15 23:00:00 18.1 7 Nordeste 12 Nordeste 0 -- -- 75
2019-06-15 22:00:00 19.3 5 Norte 19 Noroeste 0 -- -- 70
2019-06-15 21:00:00 21.5 13 Noroeste 26 Noroeste 0 -- -- 62
2019-06-15 20:00:00 24.2 13 Noroeste 27 Noroeste 0 -- -- 54
2019-06-15 19:00:00 24.7 20 Noroeste 34 Oeste 0 -- -- 49
2019-06-15 18:00:00 25.4 21 Noroeste 40 Noroeste 0 -- -- 44
2019-06-15 17:00:00 25.4 27 Noroeste 40 Noroeste 0 -- -- 45
2019-06-15 16:00:00 25.7 27 Noroeste 40 Noroeste 0 -- -- 46
2019-06-15 15:00:00 26 26 Noroeste 35 Noroeste 0 -- -- 49
2019-06-15 14:00:00 24.3 15 Oeste 24 Oeste 0 -- -- 46
2019-06-15 13:00:00 21.6 23 Sudoeste 31 Sudoeste 0 -- -- 72
2019-06-15 12:00:00 21.3 18 Sudoeste 22 Sudoeste 0 -- -- 70
2019-06-15 11:00:00 20.4 11 Sudoeste 13 Sudoeste 0 -- -- 65
2019-06-15 10:00:00 18.8 7 Norte 12 Norte 0 -- -- 63
2019-06-15 09:00:00 16.4 4 Norte 7 Nordeste 0 -- -- 68
2019-06-15 08:00:00 13.8 3 Norte 9 Nordeste 0 -- -- 80
2019-06-15 07:00:00 13.4 9 Este 10 Este 0 -- -- 82
2019-06-15 06:00:00 13.4 6 Nordeste 10 Norte 0 -- -- 89
2019-06-15 05:00:00 13.5 7 Norte 10 Nordeste 0 -- -- 87
2019-06-15 04:00:00 15.9 6 Norte 8 Norte 0 -- -- 81
2019-06-15 03:00:00 16.6 2 Noroeste 5 Sudoeste 0 -- -- 81
2019-06-15 02:00:00 17 2 Oeste 12 Noroeste 0 -- -- 77
2019-06-15 01:00:00 17.2 6 Noroeste 15 Oeste 0 -- -- 73
2019-06-15 00:00:00 17.1 2 Norte 14 Oeste 0 -- -- 69
2019-06-14 23:00:00 17.6 8 Noroeste 18 Noroeste 0 -- -- 65
2019-06-14 22:00:00 18.1 13 Noroeste 27 Noroeste 0 -- -- 69
2019-06-14 21:00:00 19.1 17 Oeste 36 Oeste 0 -- -- 66
2019-06-14 20:00:00 19.8 27 Oeste 37 Oeste 0 -- -- 69
2019-06-14 19:00:00 20.1 25 Oeste 34 Oeste 0 -- -- 67
2019-06-14 18:00:00 19.8 27 Oeste 35 Oeste 0 -- -- 69
2019-06-14 17:00:00 20.1 27 Oeste 35 Oeste 0 -- -- 64
2019-06-14 16:00:00 20.2 26 Oeste 38 Oeste 0 -- -- 65
2019-06-14 15:00:00 20.2 23 Oeste 36 Sudoeste 0 -- -- 63
2019-06-14 14:00:00 20 24 Oeste 39 Oeste 0 -- -- 63
2019-06-14 13:00:00 19.4 26 Oeste 40 Oeste 0 -- -- 62
2019-06-14 12:00:00 19.1 23 Oeste 37 Oeste 0 -- -- 70
2019-06-14 11:00:00 18.7 17 Oeste 23 Oeste 0 -- -- 73
2019-06-14 10:00:00 18.3 16 Oeste 34 Oeste 0 -- -- 75
2019-06-14 09:00:00 18.1 27 Oeste 34 Oeste 0 -- -- 79
2019-06-14 08:00:00 17.6 27 Oeste 37 Oeste 0 -- -- 81
2019-06-14 07:00:00 17.7 32 Sudoeste 44 Sudoeste 0 -- -- 82
2019-06-14 06:00:00 17.6 36 Sudoeste 44 Sudoeste 0 -- -- 79
2019-06-14 05:00:00 17.9 35 Sudoeste 41 Sudoeste 0 -- -- 81
2019-06-14 04:00:00 18.1 31 Sudoeste 36 Sudoeste 0 -- -- 82
2019-06-14 03:00:00 18.5 23 Sudoeste 30 Oeste 0 -- -- 82
2019-06-14 02:00:00 18.9 22 Sudoeste 26 Sudoeste 0 -- -- 85
2019-06-14 01:00:00 19.2 17 Sudoeste 20 Sudoeste 0 -- -- 85
2019-06-14 00:00:00 19.2 9 Sudoeste 15 Oeste 0 -- -- 86
2019-06-13 23:00:00 19.3 10 Oeste 20 Norte 0 -- -- 80
2019-06-13 22:00:00 20 13 Noroeste 22 Noroeste 0 -- -- 71
2019-06-13 21:00:00 21.2 9 Noroeste 21 Noroeste 0 -- -- 64
2019-06-13 20:00:00 21.7 15 Noroeste 33 Sudoeste 0 -- -- 62
2019-06-13 19:00:00 22.3 25 Oeste 37 Sur 0 -- -- 78
2019-06-13 18:00:00 27 17 Este 36 Sur 0 -- -- 55
2019-06-13 17:00:00 24.5 20 Sur 41 Sur 0 -- -- 72
2019-06-13 16:00:00 23.6 27 Sur 39 Sudeste 0 -- -- 75
2019-06-13 15:00:00 22.7 26 Sur 36 Sur 0 -- -- 77
2019-06-13 14:00:00 22.5 27 Sur 33 Sur 0 -- -- 77
2019-06-13 13:00:00 23.8 12 Sudeste 34 Nordeste 0 -- -- 70
2019-06-13 12:00:00 24.4 19 Este 35 Este 0 -- -- 64
2019-06-13 11:00:00 24 21 Este 34 Este 0 -- -- 68
2019-06-13 10:00:00 22.5 24 Este 36 Este 0 -- -- 73
2019-06-13 09:00:00 20.1 12 Nordeste 22 Nordeste 0 -- -- 82
2019-06-13 08:00:00 17.9 10 Nordeste 18 Nordeste 0 -- -- 89
2019-06-13 07:00:00 17.4 9 Nordeste 22 Este 0 -- -- 88
2019-06-13 06:00:00 18 12 Nordeste 18 Este 0 -- -- 86
2019-06-13 05:00:00 18.5 14 Este 24 Este 0 -- -- 85
2019-06-13 04:00:00 18.7 18 Este 27 Este 0 -- -- 85
2019-06-13 03:00:00 18.7 14 Este 26 Este 0 -- -- 86
2019-06-13 02:00:00 18.1 10 Nordeste 17 Este 0 -- -- 87
2019-06-13 01:00:00 18.4 9 Nordeste 15 Nordeste 0 -- -- 86
2019-06-13 00:00:00 19.1 16 Este 32 Este 0 -- -- 85
2019-06-12 23:00:00 19.7 23 Este 33 Este 0 -- -- 82
2019-06-12 22:00:00 20.6 16 Este 30 Este 0 -- -- 78
2019-06-12 21:00:00 23 18 Este 33 Nordeste 0 -- -- 68
2019-06-12 20:00:00 24.6 20 Este 41 Sudeste 0 -- -- 63
2019-06-12 19:00:00 25.4 27 Este 49 Este 0 -- -- 60
2019-06-12 18:00:00 25.9 29 Este 48 Sudeste 0 -- -- 59
2019-06-12 17:00:00 26.6 30 Sudeste 49 Este 0 -- -- 58
2019-06-12 16:00:00 26.6 32 Este 51 Este 0 -- -- 56
2019-06-12 15:00:00 26.4 32 Este 51 Este 0 -- -- 57
2019-06-12 14:00:00 25.9 33 Este 52 Este 0 -- -- 58
2019-06-12 13:00:00 25.5 35 Este 61 Este 0 -- -- 62
2019-06-12 12:00:00 24.1 42 Este 72 Este 0 -- -- 66
2019-06-12 11:00:00 23.1 42 Este 62 Este 0 -- -- 70
2019-06-12 10:00:00 22.1 41 Este 62 Este 0 -- -- 74
2019-06-12 09:00:00 20.7 40 Este 63 Este 0 -- -- 80
2019-06-12 08:00:00 19.5 24 Este 42 Este 0 -- -- 84
2019-06-12 07:00:00 17.8 5 Sur 13 Este 0 -- -- 92
2019-06-12 06:00:00 17.7 7 Este 31 Este 0 -- -- 91
2019-06-12 05:00:00 18.3 15 Sudoeste 27 Sur 0 -- -- 97
2019-06-12 04:00:00 18.4 23 Sur 27 Sur 0 -- -- 97
2019-06-12 03:00:00 18.7 22 Sur 25 Sur 0 -- -- 96
2019-06-12 02:00:00 18.7 17 Sur 19 Sur 0 -- -- 96
2019-06-12 01:00:00 18.3 14 Sur 18 Sur 0 -- -- 95
2019-06-12 00:00:00 18.1 6 Sur 9 Sur 0 -- -- 93
2019-06-11 23:00:00 18.4 3 Sudoeste 9 Sudoeste 0 -- -- 91
2019-06-11 22:00:00 19.1 7 Sudoeste 17 Sudoeste 0 -- -- 89
2019-06-11 21:00:00 20.4 15 Oeste 23 Sudoeste 0 -- -- 84
2019-06-11 20:00:00 21.2 19 Sudoeste 29 Sudoeste 0 -- -- 80
2019-06-11 19:00:00 21.1 22 Oeste 32 Oeste 0 -- -- 78
2019-06-11 18:00:00 20.9 27 Oeste 33 Oeste 0 -- -- 78
2019-06-11 17:00:00 20.9 28 Oeste 35 Oeste 0 -- -- 76
2019-06-11 16:00:00 20.8 28 Oeste 37 Oeste 0 -- -- 75
2019-06-11 15:00:00 20.5 28 Oeste 36 Oeste 0 -- -- 72
2019-06-11 14:00:00 19.9 27 Oeste 35 Oeste 0 -- -- 77
2019-06-11 13:00:00 19.8 24 Oeste 33 Oeste 0 -- -- 74
2019-06-11 12:00:00 19.3 23 Oeste 29 Oeste 0 -- -- 73
2019-06-11 11:00:00 19 24 Oeste 30 Oeste 0 -- -- 73
2019-06-11 10:00:00 19 16 Oeste 25 Noroeste 0 -- -- 69
2019-06-11 09:00:00 18.3 8 Oeste 18 Oeste 0 -- -- 75
2019-06-11 08:00:00 16.9 8 Oeste 14 Oeste 0 -- -- 76
2019-06-11 07:00:00 14.8 5 Oeste 8 Sudoeste 0 -- -- 91
2019-06-11 06:00:00 14.3 0 Calma 9 Norte 0 -- -- 95
2019-06-11 05:00:00 17.1 3 Oeste 14 Sur 0 -- -- 94
2019-06-11 04:00:00 18.3 13 Sudoeste 17 Sudoeste 0 -- -- 96
2019-06-11 03:00:00 18.1 12 Sudoeste 14 Sudoeste 0 -- -- 95
2019-06-11 02:00:00 17.1 5 Sudoeste 8 Sur 0 -- -- 91
2019-06-11 01:00:00 17.3 0 Calma 4 Sudoeste 0 -- -- 87
2019-06-11 00:00:00 17.6 0 Calma 13 Oeste 0 -- -- 87
2019-06-10 23:00:00 18 5 Oeste 18 Noroeste 0 -- -- 85
2019-06-10 22:00:00 18.4 10 Oeste 25 Oeste 0 -- -- 82
2019-06-10 21:00:00 19.8 17 Oeste 30 Oeste 0 -- -- 79
2019-06-10 20:00:00 20.2 22 Oeste 29 Oeste 0 -- -- 79
2019-06-10 19:00:00 20.6 22 Oeste 35 Oeste 0 -- -- 78
2019-06-10 18:00:00 20.4 31 Oeste 37 Oeste 0 -- -- 78
2019-06-10 17:00:00 20.5 32 Oeste 42 Oeste 0 -- -- 79
2019-06-10 16:00:00 20.6 33 Oeste 40 Oeste 0 -- -- 79
2019-06-10 15:00:00 20.4 32 Oeste 41 Oeste 0 -- -- 80
2019-06-10 14:00:00 20.1 33 Oeste 39 Oeste 0 -- -- 81
2019-06-10 13:00:00 20 31 Oeste 38 Sudoeste 0 -- -- 80
2019-06-10 12:00:00 19.7 25 Sudoeste 30 Sudoeste 0 -- -- 81
2019-06-10 11:00:00 19.6 23 Oeste 28 Oeste 0 -- -- 83
2019-06-10 10:00:00 19.2 17 Oeste 23 Sudoeste 0 -- -- 85
2019-06-10 09:00:00 18.4 13 Oeste 20 Oeste 0 -- -- 87
2019-06-10 08:00:00 17 6 Oeste 10 Oeste 0 -- -- 90
2019-06-10 07:00:00 16.8 5 Oeste 10 Noroeste 0 -- -- 88
2019-06-10 06:00:00 17.2 5 Noroeste 16 Norte 0 -- -- 85
2019-06-10 05:00:00 17.6 9 Norte 18 Norte 0 -- -- 83
2019-06-10 04:00:00 17.9 6 Norte 17 Noroeste 0 -- -- 81
2019-06-10 03:00:00 18.2 12 Noroeste 19 Noroeste 0 -- -- 79
2019-06-10 02:00:00 18.6 8 Oeste 17 Sudoeste 0 -- -- 88
2019-06-10 01:00:00 18.6 15 Sudoeste 19 Sudoeste 0 -- -- 93
2019-06-10 00:00:00 18.6 15 Sudoeste 18 Sudoeste 0 -- -- 92
2019-06-09 23:00:00 18.7 14 Sudoeste 16 Sudoeste 0 -- -- 89
2019-06-09 22:00:00 19 13 Oeste 22 Oeste 0 -- -- 83
2019-06-09 21:00:00 20.1 15 Oeste 31 Oeste 0 -- -- 70
2019-06-09 20:00:00 20.4 25 Oeste 35 Oeste 0 -- -- 72
2019-06-09 19:00:00 20.7 27 Oeste 35 Oeste 0 -- -- 72
2019-06-09 18:00:00 21.5 24 Oeste 33 Sudoeste 0 -- -- 69
2019-06-09 17:00:00 21.4 27 Oeste 32 Sudoeste 0 -- -- 68
2019-06-09 16:00:00 21.7 22 Oeste 29 Oeste 0 -- -- 73
2019-06-09 15:00:00 21.8 23 Oeste 27 Sudoeste 0 -- -- 75
2019-06-09 14:00:00 22.1 21 Sudoeste 24 Sudoeste 0 -- -- 73
2019-06-09 13:00:00 22 18 Sudoeste 21 Sudoeste 0 -- -- 76
2019-06-09 12:00:00 21.2 18 Sudoeste 27 Sudoeste 0 -- -- 79
2019-06-09 11:00:00 19.9 24 Sudoeste 28 Sudoeste 0 -- -- 87
2019-06-09 10:00:00 19.2 19 Sudoeste 25 Sudoeste 0 -- -- 90
2019-06-09 09:00:00 19 15 Sudoeste 21 Sur 0 -- -- 93
2019-06-09 08:00:00 18.8 15 Sur 19 Sur 0 -- -- 93
2019-06-09 07:00:00 17.5 4 Este 9 Este 0 -- -- 88
2019-06-09 06:00:00 17.4 4 Norte 8 Norte 0 -- -- 87
2019-06-09 05:00:00 17.9 3 Nordeste 10 Norte 0 -- -- 87
2019-06-09 04:00:00 18.3 3 Nordeste 10 Oeste 0 -- -- 86
2019-06-09 03:00:00 18.8 6 Oeste 9 Oeste 0 -- -- 88
2019-06-09 02:00:00 18.8 5 Oeste 8 Oeste 0 -- -- 84
2019-06-09 01:00:00 18.9 5 Nordeste 9 Norte 0 -- -- 83
2019-06-09 00:00:00 19.6 0 Calma 9 Norte 0 -- -- 80
2019-06-08 23:00:00 20.1 7 Noroeste 17 Oeste 0 -- -- 76
2019-06-08 22:00:00 20.1 11 Oeste 19 Oeste 0 -- -- 64
2019-06-08 21:00:00 20.5 15 Oeste 24 Oeste 0 -- -- 76
2019-06-08 20:00:00 21.7 20 Oeste 26 Oeste 0 -- -- 75
2019-06-08 19:00:00 22 20 Oeste 24 Oeste 0 -- -- 74
2019-06-08 18:00:00 22.6 19 Oeste 26 Oeste 0 -- -- 75
2019-06-08 17:00:00 23.1 19 Oeste 24 Oeste 0 -- -- 72
2019-06-08 16:00:00 22.8 17 Oeste 22 Oeste 0 -- -- 76
2019-06-08 15:00:00 22.9 18 Oeste 22 Oeste 0 -- -- 73
2019-06-08 14:00:00 22.9 17 Sudoeste 22 Sudoeste 0 -- -- 75
2019-06-08 13:00:00 22.1 17 Sudoeste 20 Sudoeste 0 -- -- 79
2019-06-08 12:00:00 21.5 15 Sudoeste 17 Sudoeste 0 -- -- 80
2019-06-08 11:00:00 20.4 14 Sudoeste 16 Sudoeste 0 -- -- 85
2019-06-08 10:00:00 19.9 9 Sur 12 Sur 0 -- -- 86
2019-06-08 09:00:00 15.8 7 Norte 11 Nordeste 0 -- -- 87
2019-06-08 08:00:00 13.4 6 Norte 10 Norte 0 -- -- 94
2019-06-08 07:00:00 13 7 Norte 9 Norte 0 -- -- 94
2019-06-08 06:00:00 13.2 7 Norte 11 Norte 0 -- -- 93
2019-06-08 05:00:00 13.4 9 Norte 12 Norte 0 -- -- 91
2019-06-08 04:00:00 15.1 0 Calma 5 Nordeste 0 -- -- 88
2019-06-08 03:00:00 15.1 3 Norte 8 Norte 0 -- -- 87
2019-06-08 02:00:00 16 4 Norte 6 Norte 0 -- -- 83
2019-06-08 01:00:00 17.2 4 Nordeste 5 Nordeste 0 -- -- 80
2019-06-08 00:00:00 17.8 2 Nordeste 9 Nordeste 0 -- -- 78
2019-06-07 23:00:00 18.9 3 Este 17 Nordeste 0 -- -- 71
2019-06-07 22:00:00 19.7 5 Norte 19 Noroeste 0 -- -- 69
2019-06-07 21:00:00 22.5 5 Norte 27 Noroeste 0 -- -- 57
2019-06-07 20:00:00 23.3 15 Noroeste 37 Noroeste 0 -- -- 53
2019-06-07 19:00:00 23.4 20 Oeste 35 Oeste 0 -- -- 50
2019-06-07 18:00:00 23.5 21 Oeste 33 Oeste 0 -- -- 52
2019-06-07 17:00:00 22.2 26 Oeste 37 Oeste 0 -- -- 59
2019-06-07 16:00:00 21.7 29 Oeste 38 Oeste 0 -- -- 65
2019-06-07 15:00:00 21.6 28 Oeste 37 Noroeste 0 -- -- 65
2019-06-07 14:00:00 22.7 21 Oeste 32 Oeste 0 -- -- 66
2019-06-07 13:00:00 23.6 10 Norte 25 Noroeste 0 -- -- 50
2019-06-07 12:00:00 22.3 12 Norte 26 Norte 0 -- -- 56
2019-06-07 11:00:00 20.6 12 Norte 23 Noroeste 0 -- -- 70
2019-06-07 10:00:00 19.3 10 Norte 19 Norte 0 -- -- 82
2019-06-07 09:00:00 17.6 9 Norte 20 Noroeste 0 -- -- 94
2019-06-07 08:00:00 17.7 15 Oeste 23 Oeste 0 -- -- 95
2019-06-07 07:00:00 18.2 14 Oeste 18 Oeste 0 -- -- 89
2019-06-07 06:00:00 18.1 12 Oeste 16 Oeste 0 -- -- 89
2019-06-07 05:00:00 17.6 6 Oeste 13 Oeste 0 -- -- 86
2019-06-07 04:00:00 17.4 9 Oeste 12 Oeste 0 -- -- 86
2019-06-07 03:00:00 17.5 6 Oeste 13 Noroeste 0 -- -- 83
2019-06-07 02:00:00 17.6 4 Oeste 19 Oeste 0 -- -- 81
2019-06-07 01:00:00 17.8 11 Oeste 21 Oeste 0 -- -- 82
2019-06-07 00:00:00 18.1 14 Oeste 23 Oeste 0 -- -- 81
2019-06-06 23:00:00 18 10 Oeste 19 Oeste 0 -- -- 79
2019-06-06 22:00:00 18.3 9 Noroeste 25 Oeste 0 -- -- 75
2019-06-06 21:00:00 19.7 18 Oeste 30 Oeste 0 -- -- 67
2019-06-06 20:00:00 21.3 14 Noroeste 29 Noroeste 0 -- -- 54
2019-06-06 19:00:00 20.9 21 Oeste 30 Oeste 0 -- -- 57
2019-06-06 18:00:00 21.3 23 Oeste 34 Oeste 0 -- -- 49
2019-06-06 17:00:00 21.6 24 Oeste 31 Oeste 0 -- -- 55
2019-06-06 16:00:00 21.5 27 Oeste 32 Oeste 0 -- -- 57
2019-06-06 15:00:00 21.5 27 Oeste 34 Oeste 0 -- -- 69
2019-06-06 14:00:00 21.1 30 Oeste 35 Oeste 0 -- -- 66
2019-06-06 13:00:00 20.6 28 Oeste 34 Oeste 0 -- -- 65
2019-06-06 12:00:00 20.6 16 Sudoeste 19 Sudoeste 0 -- -- 61
2019-06-06 11:00:00 20.8 5 Nordeste 13 Nordeste 0 -- -- 48
2019-06-06 10:00:00 18.4 8 Nordeste 13 Norte 0 -- -- 55
2019-06-06 09:00:00 16.1 4 Nordeste 6 Nordeste 0 -- -- 66
2019-06-06 08:00:00 13.6 6 Este 9 Nordeste 0 -- -- 84
2019-06-06 07:00:00 13.7 3 Nordeste 6 Norte 0 -- -- 89
2019-06-06 06:00:00 13.8 3 Noroeste 5 Noroeste 0 -- -- 93
2019-06-06 05:00:00 13.6 0 Calma 10 Norte 0 -- -- 91
2019-06-06 04:00:00 15.5 4 Norte 9 Norte 0 -- -- 86
2019-06-06 03:00:00 17 3 Sur 9 Sur 0 -- -- 89
2019-06-06 02:00:00 17 0 Calma 8 Sur 0 -- -- 87
2019-06-06 01:00:00 17.7 3 Sudoeste 9 Sur 0 -- -- 83
2019-06-06 00:00:00 18.2 5 Oeste 17 Oeste 0 -- -- 77
2019-06-05 23:00:00 18.3 7 Oeste 17 Oeste -- -- -- 75
2019-06-05 22:00:00 18.6 6 Sudeste 32 Noroeste 0 -- -- 73
2019-06-05 21:00:00 19.7 24 Oeste 37 Noroeste 0 -- -- 69
2019-06-05 20:00:00 20.7 23 Oeste 40 Oeste 0 -- -- 65
2019-06-05 19:00:00 20 32 Oeste 41 Oeste 0 -- -- 70
2019-06-05 18:00:00 19.6 32 Oeste 42 Oeste 0 -- -- 72
2019-06-05 17:00:00 19.7 33 Oeste 41 Oeste 0 -- -- 71
2019-06-05 16:00:00 20.4 29 Oeste 44 Oeste 0 -- -- 65
2019-06-05 15:00:00 21.3 26 Oeste 39 Oeste 0 -- -- 60
2019-06-05 14:00:00 21.3 27 Oeste 42 Noroeste 0 -- -- 60
2019-06-05 13:00:00 21.4 16 Noroeste 32 Noroeste 0 -- -- 57
2019-06-05 12:00:00 21.3 19 Noroeste 40 Noroeste 0 -- -- 47
2019-06-05 11:00:00 20.3 20 Noroeste 37 Noroeste 0 -- -- 51
2019-06-05 10:00:00 19 19 Noroeste 37 Norte 0 -- -- 56
2019-06-05 09:00:00 17.6 20 Noroeste 32 Noroeste 0 -- -- 61
2019-06-05 08:00:00 16.3 15 Noroeste 35 Noroeste 0 -- -- 71
2019-06-05 07:00:00 16.6 19 Norte 35 Norte 0 -- -- 68
2019-06-05 06:00:00 17.3 16 Norte 27 Noroeste 0 -- -- 68
2019-06-05 05:00:00 17.9 17 Noroeste 28 Noroeste 0 -- -- 69
2019-06-05 04:00:00 18.4 18 Noroeste 35 Noroeste 0 -- -- 73
2019-06-05 03:00:00 19.3 26 Noroeste 36 Noroeste 0 -- -- 79
2019-06-05 02:00:00 19.3 21 Oeste 30 Oeste 0 -- -- 86
2019-06-05 01:00:00 19.6 18 Oeste 32 Oeste 0 -- -- 91
2019-06-05 00:00:00 19.7 23 Oeste 35 Oeste 0 -- -- 91
2019-06-04 23:00:00 19.8 25 Oeste 33 Oeste 0 -- -- 90
2019-06-04 22:00:00 19.9 10 Oeste 25 Oeste 0 -- -- 87
2019-06-04 21:00:00 21.5 13 Oeste 27 Oeste 0 -- -- 78
2019-06-04 20:00:00 21.7 18 Oeste 31 Oeste 0 -- -- 78
2019-06-04 19:00:00 21.3 27 Oeste 33 Oeste 0 -- -- 84
2019-06-04 18:00:00 21.6 27 Oeste 34 Oeste 0 -- -- 82
2019-06-04 17:00:00 21.6 30 Oeste 38 Oeste 0 -- -- 81
2019-06-04 16:00:00 22 28 Oeste 33 Oeste 0 -- -- 79
2019-06-04 15:00:00 21.7 27 Sudoeste 32 Oeste 0 -- -- 81
2019-06-04 14:00:00 21.6 25 Sudoeste 34 Oeste 0 -- -- 84
2019-06-04 13:00:00 21.3 26 Oeste 32 Sudoeste 0 -- -- 86
2019-06-04 12:00:00 21.6 23 Oeste 27 Oeste 0 -- -- 85
2019-06-04 11:00:00 21.6 13 Sur 15 Sur 0 -- -- 85
2019-06-04 10:00:00 20.5 5 Este 14 Norte 0 -- -- 83
2019-06-04 09:00:00 16.5 9 Norte 13 Norte 0 -- -- 81
2019-06-04 08:00:00 14.4 5 Norte 8 Norte 0 -- -- 85
2019-06-04 07:00:00 15 0 Calma 7 Este 0 -- -- 85
2019-06-04 06:00:00 15.4 0 Calma 7 Sudoeste 0 -- -- 84
2019-06-04 05:00:00 15.3 3 Norte 10 Norte 0 -- -- 80
2019-06-04 04:00:00 15.4 8 Nordeste 10 Norte 0 -- -- 83
2019-06-04 03:00:00 16.1 7 Norte 14 Norte 0 -- -- 77
2019-06-04 02:00:00 16.9 7 Norte 11 Norte 0 -- -- 78
2019-06-04 01:00:00 18.6 5 Norte 9 Este 0 -- -- 80
2019-06-04 00:00:00 19 7 Este 9 Este 0 -- -- 74
2019-06-03 23:00:00 19.5 5 Sudeste 13 Oeste 0 -- -- 81
2019-06-03 22:00:00 20.4 11 Oeste 18 Oeste 0 -- -- 79
2019-06-03 21:00:00 21.8 12 Oeste 20 Oeste 0 -- -- 74
2019-06-03 20:00:00 24 14 Oeste 16 Oeste 0 -- -- 63
2019-06-03 19:00:00 25.3 10 Sudoeste 17 Oeste 0 -- -- 59
2019-06-03 18:00:00 25.2 9 Oeste 28 Sur 0 -- -- 60
2019-06-03 17:00:00 24.2 21 Sur 28 Sur 0 -- -- 66
2019-06-03 16:00:00 24.6 24 Sur 32 Sur 0 -- -- 62
2019-06-03 15:00:00 26.4 11 Sudoeste 17 Sur 0 -- -- 58
2019-06-03 14:00:00 26 8 Sudoeste 14 Sur 0 -- -- 60
2019-06-03 13:00:00 24.6 12 Sur 17 Sur 0 -- -- 64
2019-06-03 12:00:00 24.1 11 Sudoeste 14 Sudoeste 0 -- -- 67
2019-06-03 11:00:00 23.5 10 Sudoeste 17 Nordeste 0 -- -- 66
2019-06-03 10:00:00 24.3 14 Nordeste 23 Nordeste 0 -- -- 45
2019-06-03 09:00:00 21.5 11 Nordeste 18 Nordeste 0 -- -- 53
2019-06-03 08:00:00 17.9 13 Nordeste 16 Nordeste 0 -- -- 61
2019-06-03 07:00:00 18.2 11 Nordeste 25 Nordeste 0 -- -- 59
2019-06-03 06:00:00 19.2 18 Nordeste 29 Norte 0 -- -- 56
2019-06-03 05:00:00 20.5 23 Norte 37 Este 0 -- -- 53
2019-06-03 04:00:00 21.8 15 Este 58 Este 0 -- -- 42
2019-06-03 03:00:00 23 37 Este 64 Este 0 -- -- 39
2019-06-03 02:00:00 21.9 24 Norte 42 Nordeste 0 -- -- 42
2019-06-03 01:00:00 21.8 21 Nordeste 48 Este 0 -- -- 46
2019-06-03 00:00:00 21.6 23 Nordeste 50 Este 0 -- -- 49
2019-06-02 23:00:00 21.7 24 Este 45 Nordeste 0 -- -- 51
2019-06-02 22:00:00 22.5 27 Nordeste 49 Nordeste 0 -- -- 45
2019-06-02 21:00:00 24.1 28 Nordeste 48 Este 0 -- -- 39
2019-06-02 20:00:00 26.3 27 Este 45 Este 0 -- -- 34
2019-06-02 19:00:00 27.4 32 Este 57 Este 0 -- -- 34
2019-06-02 18:00:00 27.9 36 Este 59 Este 0 -- -- 32
2019-06-02 17:00:00 29 31 Este 47 Este 0 -- -- 32
2019-06-02 16:00:00 29 30 Este 53 Este 0 -- -- 34
2019-06-02 15:00:00 28.6 32 Este 61 Este 0 -- -- 35
2019-06-02 14:00:00 27.7 40 Este 62 Este 0 -- -- 40
2019-06-02 13:00:00 26.9 37 Este 59 Este 0 -- -- 43
2019-06-02 12:00:00 26.2 35 Este 57 Este 0 -- -- 41
2019-06-02 11:00:00 25.4 27 Este 40 Este 0 -- -- 45
2019-06-02 10:00:00 23.7 22 Este 42 Este 0 -- -- 52
2019-06-02 09:00:00 22.1 24 Nordeste 52 Nordeste 0 -- -- 53
2019-06-02 08:00:00 20.8 38 Este 72 Este 0 -- -- 56
2019-06-02 07:00:00 20.9 28 Este 61 Sudeste 0 -- -- 50
2019-06-02 06:00:00 20.9 18 Norte 44 Nordeste 0 -- -- 52
2019-06-02 05:00:00 20.6 18 Norte 37 Norte 0 -- -- 55
2019-06-02 04:00:00 20.1 13 Norte 38 Este 0 -- -- 56
2019-06-02 03:00:00 20.3 20 Nordeste 44 Nordeste 0 -- -- 57
2019-06-02 02:00:00 20.5 21 Nordeste 55 Este 0 -- -- 55
2019-06-02 01:00:00 21 38 Este 67 Sudeste 0 -- -- 53
2019-06-02 00:00:00 20.8 31 Este 60 Este 0 -- -- 58
2019-06-01 23:00:00 20.7 17 Nordeste 41 Este 0 -- -- 58
2019-06-01 22:00:00 20.8 20 Nordeste 54 Este 0 -- -- 61
2019-06-01 21:00:00 22.2 28 Este 52 Este 0 -- -- 58
2019-06-01 20:00:00 24.4 23 Sudeste 58 Este 0 -- -- 52
2019-06-01 19:00:00 25.5 29 Este 55 Este 0 -- -- 45
2019-06-01 18:00:00 26.1 30 Este 59 Este 0 -- -- 43
2019-06-01 17:00:00 25.9 38 Este 66 Este 0 -- -- 45
2019-06-01 16:00:00 26.1 40 Este 67 Este 0 -- -- 46
2019-06-01 15:00:00 25.9 39 Este 68 Este 0 -- -- 49
2019-06-01 14:00:00 25.6 33 Este 65 Este 0 -- -- 50
2019-06-01 13:00:00 24.5 31 Este 64 Este 0 -- -- 54
2019-06-01 12:00:00 23.8 35 Este 67 Este 0 -- -- 57
2019-06-01 11:00:00 23 29 Este 68 Este 0 -- -- 58
2019-06-01 10:00:00 21.6 32 Este 61 Este 0 -- -- 63
2019-06-01 09:00:00 20.4 31 Este 56 Este 0 -- -- 67
2019-06-01 08:00:00 19.2 21 Este 49 Este 0 -- -- 72
2019-06-01 07:00:00 18.9 7 Nordeste 45 Este 0 -- -- 67
2019-06-01 06:00:00 19.1 24 Este 49 Nordeste 0 -- -- 67
2019-06-01 05:00:00 19.3 18 Este 53 Este 0 -- -- 67
2019-06-01 04:00:00 19.6 25 Nordeste 58 Este 0 -- -- 64
2019-06-01 03:00:00 19.8 27 Este 53 Este 0 -- -- 62
2019-06-01 02:00:00 19.9 28 Nordeste 48 Este 0 -- -- 63
2019-06-01 01:00:00 19.7 23 Este 55 Este 0 -- -- 66
2019-06-01 00:00:00 19.8 12 Nordeste 33 Nordeste 0 -- -- 67
2019-05-31 23:00:00 20.1 14 Nordeste 33 Este 0 -- -- 65
2019-05-31 22:00:00 20.5 15 Sur 36 Este 0 -- -- 63
2019-05-31 21:00:00 22.3 12 Norte 37 Este 0 -- -- 53
2019-05-31 20:00:00 23.3 17 Este 71 Este 0 -- -- 49
2019-05-31 19:00:00 24 38 Este 84 Sudeste 0 -- -- 45
2019-05-31 18:00:00 24.5 46 Este 80 Este 0 -- -- 47
2019-05-31 17:00:00 24.8 38 Este 74 Sudeste 0 -- -- 51
2019-05-31 16:00:00 25.1 32 Este 68 Este 0 -- -- 50
2019-05-31 15:00:00 24.9 23 Este 64 Este 0 -- -- 52
2019-05-31 14:00:00 24.3 41 Sudeste 83 Este 0 -- -- 53
2019-05-31 13:00:00 23.9 52 Sudeste 96 Sudeste 0 -- -- 51
2019-05-31 12:00:00 23.4 42 Sudeste 84 Este 0 -- -- 57
2019-05-31 11:00:00 22.7 42 Sudeste 77 Sudeste 0 -- -- 59
2019-05-31 10:00:00 21.7 34 Este 67 Este 0 -- -- 62
2019-05-31 09:00:00 20.4 35 Este 60 Este 0 -- -- 67
2019-05-31 08:00:00 19.3 29 Este 59 Este 0 -- -- 71
2019-05-31 07:00:00 18.7 23 Este 60 Este 0 -- -- 74
2019-05-31 06:00:00 18.8 30 Este 64 Sudeste 0 -- -- 74
2019-05-31 05:00:00 18.9 26 Este 54 Este 0 -- -- 72
2019-05-31 04:00:00 18.9 27 Este 58 Este 0 -- -- 74
2019-05-31 03:00:00 19 24 Este 58 Este 0 -- -- 73
2019-05-31 02:00:00 19.3 33 Este 49 Este 0 -- -- 70
2019-05-31 01:00:00 19.3 7 Sudoeste 30 Este 0 -- -- 69
2019-05-31 00:00:00 19.5 13 Este 45 Este 0 -- -- 69
2019-05-30 23:00:00 19.5 17 Este 33 Sudeste 0 -- -- 68
2019-05-30 22:00:00 20.2 9 Este 29 Sudeste 0 -- -- 66
2019-05-30 21:00:00 22.5 9 Sudeste 39 Este 0 -- -- 59
2019-05-30 20:00:00 24 8 Oeste 42 Oeste 0 -- -- 56
2019-05-30 19:00:00 24.1 23 Este 63 Este 0 -- -- 56
2019-05-30 18:00:00 24.3 32 Este 59 Este 0 -- -- 57
2019-05-30 17:00:00 25 28 Este 54 Este 0 -- -- 52
2019-05-30 16:00:00 25 29 Este 61 Este 0 -- -- 55
2019-05-30 15:00:00 24.2 39 Este 65 Este 0 -- -- 57
2019-05-30 14:00:00 24.3 39 Este 75 Este 0 -- -- 58
2019-05-30 13:00:00 23.6 49 Este 73 Este 0 -- -- 58
2019-05-30 12:00:00 22.8 47 Este 74 Sudeste 0 -- -- 64
2019-05-30 11:00:00 22.2 42 Este 75 Sudeste 0 -- -- 67
2019-05-30 10:00:00 21.3 46 Este 90 Sudeste 0 -- -- 71
2019-05-30 09:00:00 20.2 50 Este 75 Este 0 -- -- 74
2019-05-30 08:00:00 19.3 30 Este 61 Este 0 -- -- 74
2019-05-30 07:00:00 19.1 29 Este 58 Este 0 -- -- 69
2019-05-30 06:00:00 19.1 18 Nordeste 42 Este 0 -- -- 73
2019-05-30 05:00:00 19.2 8 Este 39 Este 0 -- -- 76
2019-05-30 04:00:00 19.2 14 Nordeste 36 Este 0 -- -- 77
2019-05-30 03:00:00 19.4 7 Noroeste 42 Este 0 -- -- 76
2019-05-30 02:00:00 19.8 14 Nordeste 38 Nordeste 0 -- -- 74
2019-05-30 01:00:00 20 20 Este 40 Este 0 -- -- 73
2019-05-30 00:00:00 20.2 17 Este 37 Este 0 -- -- 68
2019-05-29 23:00:00 20.6 17 Nordeste 39 Este 0 -- -- 65
2019-05-29 22:00:00 21.1 26 Este 45 Este 0 -- -- 60
2019-05-29 21:00:00 22.4 25 Este 64 Este 0 -- -- 57
2019-05-29 20:00:00 23.9 43 Este 71 Este 0 -- -- 48
2019-05-29 19:00:00 25.5 38 Este 62 Este 0 -- -- 47
2019-05-29 18:00:00 26.4 35 Este 56 Este 0 -- -- 44
2019-05-29 17:00:00 26.9 33 Este 59 Este 0 -- -- 48
2019-05-29 16:00:00 26.7 41 Este 62 Este 0 -- -- 50
2019-05-29 15:00:00 26.6 40 Este 72 Este 0 -- -- 50
2019-05-29 14:00:00 26.3 44 Este 71 Este 0 -- -- 50
2019-05-29 13:00:00 26 45 Este 69 Este 0 -- -- 52
2019-05-29 12:00:00 25 39 Este 81 Este 0 -- -- 57
2019-05-29 11:00:00 24 40 Este 82 Este 0 -- -- 60
2019-05-29 10:00:00 23.4 35 Este 72 Este 0 -- -- 57
2019-05-29 09:00:00 22.2 38 Este 80 Sudeste 0 -- -- 63
2019-05-29 08:00:00 21.4 35 Este 79 Este 0 -- -- 63
2019-05-29 07:00:00 21 31 Este 59 Este 0 -- -- 64
2019-05-29 06:00:00 20.5 21 Este 42 Este 0 -- -- 72
2019-05-29 05:00:00 19.5 19 Este 32 Este 0 -- -- 77
2019-05-29 04:00:00 16.1 7 Norte 14 Norte 0 -- -- 94
2019-05-29 03:00:00 16.4 7 Norte 10 Norte 0 -- -- 90
2019-05-29 02:00:00 17.7 0 Calma 5 Este 0 -- -- 89
2019-05-29 01:00:00 17.6 5 Norte 10 Norte 0 -- -- 88
2019-05-29 00:00:00 18.7 7 Este 8 Sudeste 0 -- -- 88
2019-05-28 23:00:00 19.8 0 Calma 9 Sudeste 0 -- -- 88
2019-05-28 22:00:00 20.8 8 Sudeste 14 Sudoeste 0 -- -- 87
2019-05-28 21:00:00 22.6 10 Sur 17 Sudoeste 0 -- -- 82
2019-05-28 20:00:00 24 12 Sudoeste 21 Sudoeste 0 -- -- 74
2019-05-28 19:00:00 23.8 11 Sur 25 Sur 0 -- -- 73
2019-05-28 18:00:00 24.7 9 Sudoeste 22 Sudoeste 0 -- -- 74
2019-05-28 17:00:00 23.4 21 Sudoeste 24 Sudoeste 0 -- -- 79
2019-05-28 16:00:00 24.1 14 Sudoeste 19 Sudoeste 0 -- -- 76
2019-05-28 15:00:00 23.2 16 Sudoeste 18 Oeste 0 -- -- 80
2019-05-28 14:00:00 23.7 16 Sudoeste 18 Sudoeste 0 -- -- 78
2019-05-28 13:00:00 23.8 14 Sudoeste 18 Sudoeste 0 -- -- 80
2019-05-28 12:00:00 22.4 16 Sudoeste 23 Sudoeste 0 -- -- 85
2019-05-28 11:00:00 20.2 21 Sudoeste 24 Sur 0 -- -- 93
2019-05-28 10:00:00 21 18 Sur 23 Sudeste 0 -- -- 91
2019-05-28 09:00:00 20.1 3 Este 7 Sudeste 0 -- -- 90
2019-05-28 08:00:00 17.6 5 Este 12 Sur 0 -- -- 90
2019-05-28 07:00:00 18.3 6 Sudeste 8 Sudeste 0 -- -- 93
2019-05-28 06:00:00 18.9 4 Sudoeste 7 Sudoeste 0 -- -- 92
2019-05-28 05:00:00 18.6 0 Calma 7 Norte 0 -- -- 83
2019-05-28 04:00:00 18.4 5 Norte 6 Nordeste 0 -- -- 81
2019-05-28 03:00:00 19 5 Nordeste 10 Nordeste 0 -- -- 84
2019-05-28 02:00:00 19.4 6 Noroeste 13 Norte 0 -- -- 78
2019-05-28 01:00:00 19.9 9 Norte 15 Norte 0 -- -- 78
2019-05-28 00:00:00 21.2 9 Nordeste 15 Nordeste 0 -- -- 74
2019-05-27 23:00:00 21.4 12 Nordeste 15 Nordeste 0 -- -- 72
2019-05-27 22:00:00 22.6 5 Norte 23 Noroeste 0 -- -- 65
2019-05-27 21:00:00 26.2 9 Noroeste 17 Sur 0 -- -- 52
2019-05-27 20:00:00 27.1 7 Sudoeste 18 Oeste 0 -- -- 59
2019-05-27 19:00:00 26.5 17 Oeste 24 Oeste 0 -- -- 56
2019-05-27 18:00:00 27.8 12 Oeste 27 Oeste 0 -- -- 55
2019-05-27 17:00:00 25.5 15 Oeste 27 Oeste 0 -- -- 62
2019-05-27 16:00:00 25.2 19 Oeste 28 Oeste 0 -- -- 59
2019-05-27 15:00:00 24.8 18 Sudoeste 21 Sudoeste 0 -- -- 64
2019-05-27 14:00:00 24.7 16 Oeste 19 Oeste 0 -- -- 63
2019-05-27 13:00:00 23.9 15 Oeste 18 Oeste 0 -- -- 62
2019-05-27 12:00:00 23.5 13 Oeste 16 Oeste 0 -- -- 60
2019-05-27 11:00:00 23.5 9 Sur 11 Sur 0 -- -- 63
2019-05-27 10:00:00 21.7 4 Norte 11 Norte 0 -- -- 59
2019-05-27 09:00:00 18.6 7 Norte 11 Norte 0 -- -- 68
2019-05-27 08:00:00 15.3 6 Nordeste 10 Nordeste 0 -- -- 84
2019-05-27 07:00:00 15.2 6 Nordeste 9 Nordeste 0 -- -- 79
2019-05-27 06:00:00 15.7 7 Norte 15 Norte 0 -- -- 77
2019-05-27 05:00:00 16.3 9 Norte 14 Norte 0 -- -- 74
2019-05-27 04:00:00 16.4 6 Nordeste 10 Norte 0 -- -- 76
2019-05-27 03:00:00 17.6 7 Norte 14 Norte 0 -- -- 69
2019-05-27 02:00:00 18 9 Norte 13 Norte 0 -- -- 69
2019-05-27 01:00:00 19.5 5 Norte 11 Norte 0 -- -- 66
2019-05-27 00:00:00 20.3 7 Norte 12 Norte 0 -- -- 59
2019-05-26 23:00:00 20.7 8 Norte 13 Norte 0 -- -- 61
2019-05-26 22:00:00 21.6 7 Noroeste 20 Sudeste 0 -- -- 64
2019-05-26 21:00:00 22.7 19 Sur 31 Sur 0 -- -- 64
2019-05-26 20:00:00 23.3 24 Sur 33 Sur 0 -- -- 66
2019-05-26 19:00:00 23.5 31 Sur 36 Sur 0 -- -- 66
2019-05-26 18:00:00 23.5 27 Sur 40 Sur 0 -- -- 69
2019-05-26 17:00:00 24.9 29 Sur 40 Sur 0 -- -- 62
2019-05-26 16:00:00 25.5 25 Sur 33 Sur 0 -- -- 63
2019-05-26 15:00:00 29 12 Este 33 Sur 0 -- -- 48
2019-05-26 14:00:00 25.5 20 Sur 32 Sur 0 -- -- 57
2019-05-26 13:00:00 25.7 18 Sur 27 Sudeste 0 -- -- 58
2019-05-26 12:00:00 26.1 11 Sur 30 Este 0 -- -- 58
2019-05-26 11:00:00 25.3 18 Este 26 Nordeste 0 -- -- 47
2019-05-26 10:00:00 23.1 20 Nordeste 35 Este 0 -- -- 51
2019-05-26 09:00:00 21 27 Este 40 Este 0 -- -- 57
2019-05-26 08:00:00 19.1 20 Nordeste 34 Nordeste 0 -- -- 61
2019-05-26 07:00:00 18.5 12 Norte 31 Nordeste 0 -- -- 67
2019-05-26 06:00:00 18.2 11 Norte 34 Nordeste 0 -- -- 70
2019-05-26 05:00:00 18 13 Nordeste 26 Nordeste 0 -- -- 75
2019-05-26 04:00:00 18.7 11 Nordeste 22 Este 0 -- -- 72
2019-05-26 03:00:00 18.5 12 Norte 28 Nordeste 0 -- -- 79
2019-05-26 02:00:00 18.5 18 Nordeste 28 Nordeste 0 -- -- 81
2019-05-26 01:00:00 18.9 15 Nordeste 25 Este 0 -- -- 78
2019-05-26 00:00:00 19.4 7 Nordeste 19 Nordeste 0 -- -- 76
2019-05-25 23:00:00 20.3 10 Nordeste 29 Este 0 -- -- 69
2019-05-25 22:00:00 21.3 12 Este 23 Este 0 -- -- 65
2019-05-25 21:00:00 23.9 14 Sudeste 27 Sur 0 -- -- 57
2019-05-25 20:00:00 23.6 19 Sur 35 Sur 0 -- -- 66
2019-05-25 19:00:00 23.6 26 Sur 35 Sur 0 -- -- 71
2019-05-25 18:00:00 24.2 21 Sur 29 Sur 0 -- -- 71
2019-05-25 17:00:00 23.6 23 Sur 36 Sudeste 0 -- -- 75
2019-05-25 16:00:00 23.3 26 Sur 32 Sur 0 -- -- 77
2019-05-25 15:00:00 23.5 22 Sur 28 Sur 0 -- -- 76
2019-05-25 14:00:00 23.1 23 Sur 31 Sur 0 -- -- 77
2019-05-25 13:00:00 23.7 15 Sudoeste 22 Sudoeste 0 -- -- 74
2019-05-25 12:00:00 23.3 13 Sudoeste 18 Sudoeste 0 -- -- 72
2019-05-25 11:00:00 23 6 Sudoeste 22 Este 0 -- -- 70
2019-05-25 10:00:00 21.9 9 Nordeste 20 Este 0 -- -- 69
2019-05-25 09:00:00 20.5 11 Nordeste 19 Este 0 -- -- 78
2019-05-25 08:00:00 18.8 6 Este 23 Este 0 -- -- 83
2019-05-25 07:00:00 18.4 5 Oeste 18 Sudoeste 0 -- -- 85
2019-05-25 06:00:00 18 6 Sudeste 14 Sudoeste 0 -- -- 84
2019-05-25 05:00:00 17.6 8 Sur 22 Sur 0 -- -- 85
2019-05-25 04:00:00 18 17 Sur 21 Sur 0 -- -- 93
2019-05-25 03:00:00 18 20 Sur 31 Sur 0 -- -- 94
2019-05-25 02:00:00 18.3 27 Sudoeste 32 Sudoeste 0 -- -- 97
2019-05-25 01:00:00 18.6 24 Sur 27 Sur 0 -- -- 96
2019-05-25 00:00:00 18.7 20 Sur 24 Sur 0 -- -- 95
2019-05-24 23:00:00 18.7 15 Sur 18 Sur 0 -- -- 94
2019-05-24 22:00:00 18.8 11 Sudoeste 15 Sudoeste 0 -- -- 91
2019-05-24 21:00:00 19.3 11 Sudoeste 22 Sudoeste 0 -- -- 86
2019-05-24 20:00:00 20.3 17 Oeste 25 Oeste 0 -- -- 81
2019-05-24 19:00:00 20.7 21 Oeste 27 Sudoeste 0 -- -- 76
2019-05-24 18:00:00 20.8 23 Oeste 30 Sudoeste 0 -- -- 77
2019-05-24 17:00:00 20.6 28 Oeste 36 Oeste 0 -- -- 75
2019-05-24 16:00:00 20.5 27 Oeste 37 Sudoeste 0 -- -- 75
2019-05-24 15:00:00 19.7 31 Oeste 37 Sudoeste 0 -- -- 77
2019-05-24 14:00:00 19.4 28 Oeste 34 Sudoeste 0 -- -- 78
2019-05-24 13:00:00 19.1 31 Oeste 37 Oeste 0 -- -- 79
2019-05-24 12:00:00 21.2 13 Oeste 27 Oeste 0 -- -- 65
2019-05-24 11:00:00 19.3 22 Oeste 27 Oeste 0 -- -- 80
2019-05-24 10:00:00 20 5 Sudoeste 12 Oeste 0 -- -- 77
2019-05-24 09:00:00 17.8 4 Este 9 Noroeste 0 -- -- 83
2019-05-24 08:00:00 15.2 3 Norte 8 Norte 0 -- -- 90
2019-05-24 07:00:00 15.4 6 Norte 8 Norte 0 -- -- 87
2019-05-24 06:00:00 15.7 5 Norte 9 Norte 0 -- -- 86
2019-05-24 05:00:00 16 6 Norte 9 Norte 0 -- -- 86
2019-05-24 04:00:00 16.7 6 Norte 10 Norte 0 -- -- 82
2019-05-24 03:00:00 16.6 7 Norte 10 Norte 0 -- -- 84
2019-05-24 02:00:00 17.7 7 Norte 9 Norte 0 -- -- 80
2019-05-24 01:00:00 19.6 4 Norte 6 Noroeste 0 -- -- 72
2019-05-24 00:00:00 20.1 4 Nordeste 9 Este 0 -- -- 72
2019-05-23 23:00:00 20.9 6 Este 19 Oeste 0 -- -- 69
2019-05-23 22:00:00 21.7 14 Noroeste 18 Noroeste 0 -- -- 66
2019-05-23 21:00:00 23.3 7 Sudoeste 23 Oeste 0 -- -- 67
2019-05-23 20:00:00 23.9 17 Oeste 24 Oeste 0 -- -- 63
2019-05-23 19:00:00 24.5 19 Oeste 29 Oeste 0 -- -- 61
2019-05-23 18:00:00 24.4 22 Oeste 26 Oeste 0 -- -- 60
2019-05-23 17:00:00 24.7 19 Oeste 24 Oeste 0 -- -- 61
2019-05-23 16:00:00 24.2 18 Oeste 22 Oeste 0 -- -- 67
2019-05-23 15:00:00 23.5 15 Oeste 17 Oeste 0 -- -- 75
2019-05-23 14:00:00 24.1 12 Sudoeste 15 Sudoeste 0 -- -- 72
2019-05-23 13:00:00 23.7 12 Sudoeste 18 Sur 0 -- -- 75
2019-05-23 12:00:00 23.3 11 Sudoeste 24 Sur 0 -- -- 74
2019-05-23 11:00:00 25.1 14 Este 27 Nordeste 0 -- -- 54
2019-05-23 10:00:00 23 17 Nordeste 24 Nordeste 0 -- -- 49
2019-05-23 09:00:00 20.7 14 Nordeste 19 Nordeste 0 -- -- 52
2019-05-23 08:00:00 17.7 8 Norte 18 Norte 0 -- -- 62
2019-05-23 07:00:00 17.2 6 Norte 15 Nordeste 0 -- -- 68
2019-05-23 06:00:00 17.6 14 Nordeste 19 Nordeste 0 -- -- 67
2019-05-23 05:00:00 17.7 12 Nordeste 26 Nordeste 0 -- -- 68
2019-05-23 04:00:00 18.4 22 Nordeste 36 Nordeste 0 -- -- 65
2019-05-23 03:00:00 18.6 24 Nordeste 30 Este 0 -- -- 64
2019-05-23 02:00:00 17.5 10 Norte 17 Norte 0 -- -- 72
2019-05-23 01:00:00 17.9 6 Noroeste 16 Nordeste 0 -- -- 70
2019-05-23 00:00:00 18.7 10 Nordeste 22 Este 0 -- -- 64
2019-05-22 23:00:00 19.3 18 Este 25 Este 0 -- -- 68
2019-05-22 22:00:00 19.8 14 Este 17 Este 0 -- -- 73
2019-05-22 21:00:00 23 5 Sudoeste 16 Sudoeste 0 -- -- 76
2019-05-22 20:00:00 25.7 12 Oeste 25 Este 0 -- -- 65
2019-05-22 19:00:00 27.5 19 Este 37 Este 0 -- -- 40
2019-05-22 18:00:00 28.3 25 Este 39 Este 0 -- -- 39
2019-05-22 17:00:00 25.5 17 Sudeste 32 Este 0 -- -- 47
2019-05-22 16:00:00 22.4 21 Sur 28 Sur 0 -- -- 77
2019-05-22 15:00:00 22.7 21 Sur 27 Sur 0 -- -- 78
2019-05-22 14:00:00 23.5 14 Sur 20 Sur 0 -- -- 76
2019-05-22 13:00:00 23.4 11 Sudoeste 15 Sudoeste 0 -- -- 75
2019-05-22 12:00:00 22.6 10 Sudoeste 15 Sudoeste 0 -- -- 75
2019-05-22 11:00:00 20.6 9 Oeste 20 Oeste 0 -- -- 81
2019-05-22 10:00:00 20.8 13 Sudoeste 25 Este 0 -- -- 78
2019-05-22 09:00:00 19.2 5 Sudeste 20 Este 0 -- -- 79
2019-05-22 08:00:00 14.7 6 Norte 12 Norte 0 -- -- 95
2019-05-22 07:00:00 13.9 5 Norte 8 Noroeste 0 -- -- 98
2019-05-22 06:00:00 13.6 8 Norte 11 Norte 0 -- -- 98
2019-05-22 05:00:00 13.4 6 Norte 12 Nordeste 0 -- -- 98
2019-05-22 04:00:00 14.1 8 Norte 9 Norte 0 -- -- 95
2019-05-22 03:00:00 14.6 4 Nordeste 7 Nordeste 0 -- -- 94
2019-05-22 02:00:00 15.5 4 Norte 6 Norte 0 -- -- 93
2019-05-22 01:00:00 16.4 4 Norte 8 Nordeste 0 -- -- 90
2019-05-22 00:00:00 16.9 7 Este 9 Nordeste 0 -- -- 88